sensor_id;sensor_type;location;lat;lon;timestamp;pressure;altitude;pressure_sealevel;temperature;humidity
63339;BME280;47485;51.378;-1.342;2022-11-23T00:00:30;97916.18;;;5.55;34.51
63339;BME280;47485;51.378;-1.342;2022-11-23T00:02:58;97913.04;;;5.70;35.09
63339;BME280;47485;51.378;-1.342;2022-11-23T00:05:26;97917.74;;;4.62;37.65
63339;BME280;47485;51.378;-1.342;2022-11-23T00:07:53;97917.48;;;3.10;37.84
63339;BME280;47485;51.378;-1.342;2022-11-23T00:10:20;97916.72;;;4.77;38.78
63339;BME280;47485;51.378;-1.342;2022-11-23T00:12:48;97914.88;;;5.28;37.41
63339;BME280;47485;51.378;-1.342;2022-11-23T00:15:15;97915.48;;;4.57;37.77
63339;BME280;47485;51.378;-1.342;2022-11-23T00:17:41;97913.56;;;6.31;36.21
63339;BME280;47485;51.378;-1.342;2022-11-23T00:20:09;97917.26;;;6.07;35.46
63339;BME280;47485;51.378;-1.342;2022-11-23T00:22:36;97913.93;;;6.61;35.37
63339;BME280;47485;51.378;-1.342;2022-11-23T00:25:03;97912.40;;;5.79;35.37
63339;BME280;47485;51.378;-1.342;2022-11-23T00:27:30;97911.67;;;6.51;35.61
63339;BME280;47485;51.378;-1.342;2022-11-23T00:29:57;97906.12;;;3.79;36.03
63339;BME280;47485;51.378;-1.342;2022-11-23T00:32:24;97903.90;;;2.77;36.08
63339;BME280;47485;51.378;-1.342;2022-11-23T00:34:51;97899.67;;;6.60;32.59
63339;BME280;47485;51.378;-1.342;2022-11-23T00:37:17;97894.03;;;7.00;33.31
63339;BME280;47485;51.378;-1.342;2022-11-23T00:39:44;97887.13;;;5.89;32.34
63339;BME280;47485;51.378;-1.342;2022-11-23T00:42:11;97888.02;;;5.79;32.21
63339;BME280;47485;51.378;-1.342;2022-11-23T00:44:38;97879.57;;;7.34;31.24
63339;BME280;47485;51.378;-1.342;2022-11-23T00:47:04;97875.45;;;5.90;31.27
63339;BME280;47485;51.378;-1.342;2022-11-23T00:49:31;97867.21;;;6.67;30.80
63339;BME280;47485;51.378;-1.342;2022-11-23T00:51:58;97865.04;;;6.90;29.68
63339;BME280;47485;51.378;-1.342;2022-11-23T00:54:25;97864.28;;;4.77;30.31
63339;BME280;47485;51.378;-1.342;2022-11-23T00:56:52;97862.27;;;7.12;29.77
63339;BME280;47485;51.378;-1.342;2022-11-23T00:59:18;97859.10;;;8.45;28.70
63339;BME280;47485;51.378;-1.342;2022-11-23T01:01:47;97854.49;;;6.74;28.54
63339;BME280;47485;51.378;-1.342;2022-11-23T01:04:14;97846.18;;;6.90;29.86
63339;BME280;47485;51.378;-1.342;2022-11-23T01:06:41;97840.33;;;5.84;30.06
63339;BME280;47485;51.378;-1.342;2022-11-23T01:09:11;97842.29;;;6.91;29.54
63339;BME280;47485;51.378;-1.342;2022-11-23T01:11:39;97835.24;;;6.52;29.24
63339;BME280;47485;51.378;-1.342;2022-11-23T01:14:06;97837.51;;;7.14;28.76
63339;BME280;47485;51.378;-1.342;2022-11-23T01:16:34;97834.43;;;7.38;28.68
63339;BME280;47485;51.378;-1.342;2022-11-23T01:19:03;97832.40;;;8.89;27.41
63339;BME280;47485;51.378;-1.342;2022-11-23T01:21:32;97833.77;;;7.52;28.43
63339;BME280;47485;51.378;-1.342;2022-11-23T01:24:02;97829.48;;;5.19;30.61
63339;BME280;47485;51.378;-1.342;2022-11-23T01:26:29;97823.65;;;5.01;29.93
63339;BME280;47485;51.378;-1.342;2022-11-23T01:28:56;97830.46;;;5.10;29.27
63339;BME280;47485;51.378;-1.342;2022-11-23T01:31:23;97820.18;;;5.24;29.23
63339;BME280;47485;51.378;-1.342;2022-11-23T01:33:51;97815.41;;;4.80;29.90
63339;BME280;47485;51.378;-1.342;2022-11-23T01:36:20;97807.41;;;5.52;29.04
63339;BME280;47485;51.378;-1.342;2022-11-23T01:38:49;97798.31;;;5.17;29.45
63339;BME280;47485;51.378;-1.342;2022-11-23T01:41:18;97788.72;;;5.68;29.06
63339;BME280;47485;51.378;-1.342;2022-11-23T01:43:46;97784.39;;;5.85;28.51
63339;BME280;47485;51.378;-1.342;2022-11-23T01:46:13;97773.66;;;4.02;29.41
63339;BME280;47485;51.378;-1.342;2022-11-23T01:48:43;97772.56;;;5.75;29.70
63339;BME280;47485;51.378;-1.342;2022-11-23T01:51:13;97767.47;;;5.97;29.10
63339;BME280;47485;51.378;-1.342;2022-11-23T01:53:41;97765.19;;;4.59;29.94
63339;BME280;47485;51.378;-1.342;2022-11-23T01:56:11;97761.06;;;5.86;29.42
63339;BME280;47485;51.378;-1.342;2022-11-23T01:58:43;97759.29;;;4.08;30.03
63339;BME280;47485;51.378;-1.342;2022-11-23T02:01:11;97752.96;;;4.65;29.47
63339;BME280;47485;51.378;-1.342;2022-11-23T02:03:38;97750.90;;;5.15;29.57
63339;BME280;47485;51.378;-1.342;2022-11-23T02:06:10;97742.35;;;5.64;29.31
63339;BME280;47485;51.378;-1.342;2022-11-23T02:08:37;97739.79;;;4.29;28.71
63339;BME280;47485;51.378;-1.342;2022-11-23T02:11:04;97731.54;;;7.91;28.69
63339;BME280;47485;51.378;-1.342;2022-11-23T02:13:31;97715.82;;;6.85;28.64
63339;BME280;47485;51.378;-1.342;2022-11-23T02:15:58;97711.63;;;6.61;28.34
63339;BME280;47485;51.378;-1.342;2022-11-23T02:18:27;97708.42;;;7.65;28.02
63339;BME280;47485;51.378;-1.342;2022-11-23T02:20:56;97703.44;;;6.58;27.45
63339;BME280;47485;51.378;-1.342;2022-11-23T02:23:31;97703.43;;;5.08;29.12
63339;BME280;47485;51.378;-1.342;2022-11-23T02:26:03;97697.89;;;4.51;28.90
63339;BME280;47485;51.378;-1.342;2022-11-23T02:28:35;97701.79;;;3.06;30.27
63339;BME280;47485;51.378;-1.342;2022-11-23T02:31:02;97700.60;;;3.84;30.39
63339;BME280;47485;51.378;-1.342;2022-11-23T02:33:29;97689.35;;;6.15;28.64
63339;BME280;47485;51.378;-1.342;2022-11-23T02:35:58;97689.02;;;5.04;28.88
63339;BME280;47485;51.378;-1.342;2022-11-23T02:38:27;97683.87;;;5.75;28.65
63339;BME280;47485;51.378;-1.342;2022-11-23T02:40:54;97682.59;;;6.50;28.15
63339;BME280;47485;51.378;-1.342;2022-11-23T02:43:22;97682.73;;;5.94;28.33
63339;BME280;47485;51.378;-1.342;2022-11-23T02:45:52;97684.29;;;5.97;27.86
63339;BME280;47485;51.378;-1.342;2022-11-23T02:48:19;97680.00;;;5.16;27.58
63339;BME280;47485;51.378;-1.342;2022-11-23T02:50:46;97677.75;;;6.95;27.67
63339;BME280;47485;51.378;-1.342;2022-11-23T02:53:13;97672.61;;;5.42;28.53
63339;BME280;47485;51.378;-1.342;2022-11-23T02:55:40;97671.18;;;4.72;28.13
63339;BME280;47485;51.378;-1.342;2022-11-23T02:58:07;97668.81;;;4.88;28.88
63339;BME280;47485;51.378;-1.342;2022-11-23T03:00:34;97666.76;;;5.17;28.10
63339;BME280;47485;51.378;-1.342;2022-11-23T03:03:02;97662.20;;;5.23;28.48
63339;BME280;47485;51.378;-1.342;2022-11-23T03:05:29;97653.85;;;5.18;28.76
63339;BME280;47485;51.378;-1.342;2022-11-23T03:07:56;97646.90;;;4.69;28.47
63339;BME280;47485;51.378;-1.342;2022-11-23T03:10:23;97644.77;;;5.00;28.72
63339;BME280;47485;51.378;-1.342;2022-11-23T03:12:53;97642.21;;;5.82;28.21
63339;BME280;47485;51.378;-1.342;2022-11-23T03:15:20;97643.09;;;5.78;28.62
63339;BME280;47485;51.378;-1.342;2022-11-23T03:17:47;97642.94;;;5.58;29.13
63339;BME280;47485;51.378;-1.342;2022-11-23T03:20:14;97638.00;;;6.18;29.77
63339;BME280;47485;51.378;-1.342;2022-11-23T03:22:41;97636.89;;;4.88;30.41
63339;BME280;47485;51.378;-1.342;2022-11-23T03:25:08;97634.48;;;5.93;29.83
63339;BME280;47485;51.378;-1.342;2022-11-23T03:27:36;97630.33;;;6.20;29.17
63339;BME280;47485;51.378;-1.342;2022-11-23T03:30:05;97629.33;;;5.84;29.64
63339;BME280;47485;51.378;-1.342;2022-11-23T03:32:32;97621.23;;;5.64;30.12
63339;BME280;47485;51.378;-1.342;2022-11-23T03:34:58;97614.35;;;6.91;28.69
63339;BME280;47485;51.378;-1.342;2022-11-23T03:37:25;97599.27;;;7.11;28.93
63339;BME280;47485;51.378;-1.342;2022-11-23T03:39:52;97595.61;;;5.42;28.69
63339;BME280;47485;51.378;-1.342;2022-11-23T03:42:19;97587.05;;;6.38;28.93
63339;BME280;47485;51.378;-1.342;2022-11-23T03:44:46;97575.35;;;5.37;29.15
63339;BME280;47485;51.378;-1.342;2022-11-23T03:47:18;97570.92;;;6.84;28.98
63339;BME280;47485;51.378;-1.342;2022-11-23T03:49:44;97568.80;;;5.58;29.37
63339;BME280;47485;51.378;-1.342;2022-11-23T03:52:12;97557.85;;;6.32;29.64
63339;BME280;47485;51.378;-1.342;2022-11-23T03:54:39;97543.76;;;6.27;30.23
63339;BME280;47485;51.378;-1.342;2022-11-23T03:57:06;97532.65;;;6.09;29.48
63339;BME280;47485;51.378;-1.342;2022-11-23T03:59:33;97530.56;;;4.73;30.32
63339;BME280;47485;51.378;-1.342;2022-11-23T04:01:59;97532.98;;;3.43;31.36
63339;BME280;47485;51.378;-1.342;2022-11-23T04:04:26;97522.98;;;3.16;30.62
63339;BME280;47485;51.378;-1.342;2022-11-23T04:06:53;97512.16;;;6.13;30.05
63339;BME280;47485;51.378;-1.342;2022-11-23T04:09:20;97508.19;;;4.30;33.12
63339;BME280;47485;51.378;-1.342;2022-11-23T04:11:47;97508.30;;;3.44;33.62
63339;BME280;47485;51.378;-1.342;2022-11-23T04:14:13;97510.49;;;3.08;33.69
63339;BME280;47485;51.378;-1.342;2022-11-23T04:16:40;97510.30;;;3.82;34.14
63339;BME280;47485;51.378;-1.342;2022-11-23T04:19:07;97519.15;;;4.21;34.09
63339;BME280;47485;51.378;-1.342;2022-11-23T04:21:34;97520.37;;;2.04;35.57
63339;BME280;47485;51.378;-1.342;2022-11-23T04:24:00;97516.98;;;3.00;34.88
63339;BME280;47485;51.378;-1.342;2022-11-23T04:26:27;97520.22;;;3.76;35.54
63339;BME280;47485;51.378;-1.342;2022-11-23T04:28:54;97509.84;;;3.99;35.13
63339;BME280;47485;51.378;-1.342;2022-11-23T04:31:21;97519.54;;;4.26;36.22
63339;BME280;47485;51.378;-1.342;2022-11-23T04:33:48;97515.78;;;3.89;35.93
63339;BME280;47485;51.378;-1.342;2022-11-23T04:36:15;97510.39;;;4.01;36.55
63339;BME280;47485;51.378;-1.342;2022-11-23T04:38:42;97498.66;;;2.11;37.99
63339;BME280;47485;51.378;-1.342;2022-11-23T04:41:09;97502.21;;;-0.94;41.88
63339;BME280;47485;51.378;-1.342;2022-11-23T04:43:36;97491.57;;;1.80;39.68
63339;BME280;47485;51.378;-1.342;2022-11-23T04:46:03;97473.98;;;1.71;39.83
63339;BME280;47485;51.378;-1.342;2022-11-23T04:48:30;97466.30;;;1.54;39.97
63339;BME280;47485;51.378;-1.342;2022-11-23T04:50:56;97461.51;;;-1.50;43.48
63339;BME280;47485;51.378;-1.342;2022-11-23T04:53:23;97465.87;;;0.69;42.57
63339;BME280;47485;51.378;-1.342;2022-11-23T04:55:51;97454.89;;;1.50;40.62
63339;BME280;47485;51.378;-1.342;2022-11-23T04:58:18;97447.87;;;1.11;40.91
63339;BME280;47485;51.378;-1.342;2022-11-23T05:00:44;97437.35;;;0.45;41.05
63339;BME280;47485;51.378;-1.342;2022-11-23T05:03:11;97434.91;;;-0.40;41.68
63339;BME280;47485;51.378;-1.342;2022-11-23T05:05:39;97434.95;;;-2.49;46.42
63339;BME280;47485;51.378;-1.342;2022-11-23T05:08:06;97430.55;;;2.67;41.77
63339;BME280;47485;51.378;-1.342;2022-11-23T05:10:33;97425.81;;;-0.63;44.96
63339;BME280;47485;51.378;-1.342;2022-11-23T05:13:00;97412.12;;;-1.54;47.75
63339;BME280;47485;51.378;-1.342;2022-11-23T05:15:27;97407.30;;;1.25;44.86
63339;BME280;47485;51.378;-1.342;2022-11-23T05:17:59;97405.46;;;1.44;43.38
63339;BME280;47485;51.378;-1.342;2022-11-23T05:20:27;97392.04;;;1.61;42.57
63339;BME280;47485;51.378;-1.342;2022-11-23T05:22:53;97392.73;;;0.74;42.65
63339;BME280;47485;51.378;-1.342;2022-11-23T05:25:20;97386.13;;;2.57;42.19
63339;BME280;47485;51.378;-1.342;2022-11-23T05:27:47;97383.99;;;0.80;44.86
63339;BME280;47485;51.378;-1.342;2022-11-23T05:30:14;97377.08;;;-0.25;47.78
63339;BME280;47485;51.378;-1.342;2022-11-23T05:32:41;97364.76;;;3.20;42.11
63339;BME280;47485;51.378;-1.342;2022-11-23T05:35:08;97361.65;;;3.39;43.41
63339;BME280;47485;51.378;-1.342;2022-11-23T05:37:36;97358.10;;;-1.48;49.11
63339;BME280;47485;51.378;-1.342;2022-11-23T05:40:04;97349.78;;;0.67;47.52
63339;BME280;47485;51.378;-1.342;2022-11-23T05:42:31;97336.08;;;2.34;46.08
63339;BME280;47485;51.378;-1.342;2022-11-23T05:44:59;97337.24;;;-1.47;48.95
63339;BME280;47485;51.378;-1.342;2022-11-23T05:47:26;97326.09;;;0.94;45.27
63339;BME280;47485;51.378;-1.342;2022-11-23T05:49:52;97320.53;;;1.01;45.33
63339;BME280;47485;51.378;-1.342;2022-11-23T05:52:19;97316.52;;;1.48;48.06
63339;BME280;47485;51.378;-1.342;2022-11-23T05:54:46;97314.14;;;0.36;48.50
63339;BME280;47485;51.378;-1.342;2022-11-23T05:57:12;97301.79;;;2.76;44.15
63339;BME280;47485;51.378;-1.342;2022-11-23T05:59:39;97295.20;;;1.11;46.45
63339;BME280;47485;51.378;-1.342;2022-11-23T06:02:06;97294.62;;;1.39;46.85
63339;BME280;47485;51.378;-1.342;2022-11-23T06:04:33;97295.16;;;0.90;47.45
63339;BME280;47485;51.378;-1.342;2022-11-23T06:06:59;97286.69;;;2.94;45.66
63339;BME280;47485;51.378;-1.342;2022-11-23T06:09:26;97294.83;;;-0.07;49.53
63339;BME280;47485;51.378;-1.342;2022-11-23T06:11:53;97290.78;;;1.01;50.86
63339;BME280;47485;51.378;-1.342;2022-11-23T06:14:20;97280.69;;;-0.11;48.79
63339;BME280;47485;51.378;-1.342;2022-11-23T06:16:47;97281.07;;;2.38;47.02
63339;BME280;47485;51.378;-1.342;2022-11-23T06:19:14;97279.64;;;1.25;49.56
63339;BME280;47485;51.378;-1.342;2022-11-23T06:21:40;97276.03;;;2.45;46.74
63339;BME280;47485;51.378;-1.342;2022-11-23T06:24:07;97271.74;;;1.07;49.16
63339;BME280;47485;51.378;-1.342;2022-11-23T06:26:34;97265.99;;;1.27;47.82
63339;BME280;47485;51.378;-1.342;2022-11-23T06:29:01;97262.04;;;-1.06;52.82
63339;BME280;47485;51.378;-1.342;2022-11-23T06:31:28;97240.23;;;2.07;49.29
63339;BME280;47485;51.378;-1.342;2022-11-23T06:33:54;97234.80;;;0.88;49.45
63339;BME280;47485;51.378;-1.342;2022-11-23T06:36:21;97228.64;;;1.96;48.03
63339;BME280;47485;51.378;-1.342;2022-11-23T06:38:49;97209.91;;;2.20;48.54
63339;BME280;47485;51.378;-1.342;2022-11-23T06:41:16;97213.89;;;-0.45;54.31
63339;BME280;47485;51.378;-1.342;2022-11-23T06:43:45;97206.05;;;-0.26;54.06
63339;BME280;47485;51.378;-1.342;2022-11-23T06:46:12;97192.38;;;0.98;49.95
63339;BME280;47485;51.378;-1.342;2022-11-23T06:48:42;97191.50;;;-0.15;52.01
63339;BME280;47485;51.378;-1.342;2022-11-23T06:51:08;97184.98;;;1.26;51.02
63339;BME280;47485;51.378;-1.342;2022-11-23T06:53:35;97172.01;;;1.32;51.10
63339;BME280;47485;51.378;-1.342;2022-11-23T06:56:03;97175.75;;;1.62;52.03
63339;BME280;47485;51.378;-1.342;2022-11-23T06:58:30;97168.88;;;2.37;50.20
63339;BME280;47485;51.378;-1.342;2022-11-23T07:00:59;97165.66;;;-0.99;53.17
63339;BME280;47485;51.378;-1.342;2022-11-23T07:03:26;97159.97;;;-0.66;56.17
63339;BME280;47485;51.378;-1.342;2022-11-23T07:05:52;97162.42;;;0.44;53.48
63339;BME280;47485;51.378;-1.342;2022-11-23T07:08:20;97155.32;;;1.61;52.91
63339;BME280;47485;51.378;-1.342;2022-11-23T07:10:47;97151.36;;;2.52;52.16
63339;BME280;47485;51.378;-1.342;2022-11-23T07:13:14;97159.02;;;0.12;52.08
63339;BME280;47485;51.378;-1.342;2022-11-23T07:15:41;97167.07;;;1.95;52.20
63339;BME280;47485;51.378;-1.342;2022-11-23T07:18:09;97146.89;;;1.18;51.97
63339;BME280;47485;51.378;-1.342;2022-11-23T07:20:37;97152.34;;;0.93;51.37
63339;BME280;47485;51.378;-1.342;2022-11-23T07:23:05;97145.05;;;3.68;50.25
63339;BME280;47485;51.378;-1.342;2022-11-23T07:25:37;97139.41;;;2.21;50.74
63339;BME280;47485;51.378;-1.342;2022-11-23T07:28:06;97139.18;;;2.54;50.03
63339;BME280;47485;51.378;-1.342;2022-11-23T07:30:34;97140.28;;;1.37;51.91
63339;BME280;47485;51.378;-1.342;2022-11-23T07:33:02;97136.36;;;1.17;51.28
63339;BME280;47485;51.378;-1.342;2022-11-23T07:35:30;97127.26;;;2.41;53.61
63339;BME280;47485;51.378;-1.342;2022-11-23T07:37:57;97108.74;;;1.55;52.89
63339;BME280;47485;51.378;-1.342;2022-11-23T07:40:24;97096.77;;;1.37;52.13
63339;BME280;47485;51.378;-1.342;2022-11-23T07:42:51;97089.35;;;2.46;51.83
63339;BME280;47485;51.378;-1.342;2022-11-23T07:45:18;97090.98;;;1.55;52.93
63339;BME280;47485;51.378;-1.342;2022-11-23T07:47:45;97099.92;;;2.40;51.46
63339;BME280;47485;51.378;-1.342;2022-11-23T07:50:13;97091.41;;;-1.17;56.23
63339;BME280;47485;51.378;-1.342;2022-11-23T07:52:39;97110.44;;;3.71;52.26
63339;BME280;47485;51.378;-1.342;2022-11-23T07:55:07;97124.34;;;0.75;54.21
63339;BME280;47485;51.378;-1.342;2022-11-23T07:57:34;97109.06;;;2.38;54.40
63339;BME280;47485;51.378;-1.342;2022-11-23T08:00:02;97132.23;;;2.60;51.67
63339;BME280;47485;51.378;-1.342;2022-11-23T08:02:28;97143.22;;;5.51;50.99
63339;BME280;47485;51.378;-1.342;2022-11-23T08:04:55;97140.53;;;4.57;50.20
63339;BME280;47485;51.378;-1.342;2022-11-23T08:07:22;97142.55;;;3.11;54.45
63339;BME280;47485;51.378;-1.342;2022-11-23T08:09:50;97164.30;;;4.07;52.62
63339;BME280;47485;51.378;-1.342;2022-11-23T08:12:16;97178.85;;;2.42;54.55
63339;BME280;47485;51.378;-1.342;2022-11-23T08:14:43;97195.52;;;4.08;54.77
63339;BME280;47485;51.378;-1.342;2022-11-23T08:17:10;97210.49;;;4.61;54.66
63339;BME280;47485;51.378;-1.342;2022-11-23T08:19:37;97216.77;;;3.86;56.84
63339;BME280;47485;51.378;-1.342;2022-11-23T08:22:03;97215.81;;;4.16;54.06
63339;BME280;47485;51.378;-1.342;2022-11-23T08:24:30;97221.10;;;4.42;53.55
63339;BME280;47485;51.378;-1.342;2022-11-23T08:26:57;97238.66;;;2.73;54.91
63339;BME280;47485;51.378;-1.342;2022-11-23T08:29:24;97248.82;;;4.25;54.86
63339;BME280;47485;51.378;-1.342;2022-11-23T08:31:51;97265.66;;;4.83;54.93
63339;BME280;47485;51.378;-1.342;2022-11-23T08:34:18;97274.05;;;4.10;53.63
63339;BME280;47485;51.378;-1.342;2022-11-23T08:36:45;97279.08;;;4.57;53.41
63339;BME280;47485;51.378;-1.342;2022-11-23T08:39:12;97286.07;;;4.75;53.02
63339;BME280;47485;51.378;-1.342;2022-11-23T08:41:39;97288.22;;;4.39;51.95
63339;BME280;47485;51.378;-1.342;2022-11-23T08:44:06;97293.81;;;4.56;50.90
63339;BME280;47485;51.378;-1.342;2022-11-23T08:46:33;97303.90;;;4.76;50.53
63339;BME280;47485;51.378;-1.342;2022-11-23T08:49:00;97311.86;;;4.60;49.98
63339;BME280;47485;51.378;-1.342;2022-11-23T08:51:27;97318.41;;;4.71;50.82
63339;BME280;47485;51.378;-1.342;2022-11-23T08:53:54;97331.28;;;2.83;53.26
63339;BME280;47485;51.378;-1.342;2022-11-23T08:56:20;97344.57;;;4.29;51.00
63339;BME280;47485;51.378;-1.342;2022-11-23T08:58:48;97343.15;;;4.44;51.34
63339;BME280;47485;51.378;-1.342;2022-11-23T09:01:16;97340.84;;;4.69;50.96
63339;BME280;47485;51.378;-1.342;2022-11-23T09:03:43;97347.21;;;3.50;53.17
63339;BME280;47485;51.378;-1.342;2022-11-23T09:06:10;97350.74;;;1.85;54.11
63339;BME280;47485;51.378;-1.342;2022-11-23T09:08:37;97360.87;;;2.88;53.69
63339;BME280;47485;51.378;-1.342;2022-11-23T09:11:05;97362.41;;;3.12;53.53
63339;BME280;47485;51.378;-1.342;2022-11-23T09:13:34;97371.17;;;2.82;53.84
63339;BME280;47485;51.378;-1.342;2022-11-23T09:16:03;97381.24;;;2.52;53.35
63339;BME280;47485;51.378;-1.342;2022-11-23T09:18:30;97382.96;;;3.65;51.94
63339;BME280;47485;51.378;-1.342;2022-11-23T09:21:01;97396.79;;;4.22;51.36
63339;BME280;47485;51.378;-1.342;2022-11-23T09:23:28;97393.35;;;3.45;52.19
63339;BME280;47485;51.378;-1.342;2022-11-23T09:25:57;97405.54;;;3.69;50.78
63339;BME280;47485;51.378;-1.342;2022-11-23T09:28:23;97418.93;;;2.53;51.29
63339;BME280;47485;51.378;-1.342;2022-11-23T09:30:51;97426.02;;;3.10;51.50
63339;BME280;47485;51.378;-1.342;2022-11-23T09:33:18;97433.48;;;3.06;51.95
63339;BME280;47485;51.378;-1.342;2022-11-23T09:35:45;97435.60;;;2.72;53.42
63339;BME280;47485;51.378;-1.342;2022-11-23T09:38:11;97444.55;;;1.74;53.02
63339;BME280;47485;51.378;-1.342;2022-11-23T09:40:39;97450.25;;;2.58;51.85
63339;BME280;47485;51.378;-1.342;2022-11-23T09:43:15;97462.17;;;2.37;52.19
63339;BME280;47485;51.378;-1.342;2022-11-23T09:45:46;97459.71;;;2.86;51.31
63339;BME280;47485;51.378;-1.342;2022-11-23T09:48:31;97462.53;;;2.51;52.44
63339;BME280;47485;51.378;-1.342;2022-11-23T09:51:06;97462.05;;;2.43;52.92
63339;BME280;47485;51.378;-1.342;2022-11-23T09:53:41;97474.61;;;2.28;53.05
63339;BME280;47485;51.378;-1.342;2022-11-23T09:56:15;97475.52;;;2.30;52.64
63339;BME280;47485;51.378;-1.342;2022-11-23T09:58:43;97479.36;;;2.25;51.17
63339;BME280;47485;51.378;-1.342;2022-11-23T10:01:12;97484.07;;;3.48;52.24
63339;BME280;47485;51.378;-1.342;2022-11-23T10:03:41;97488.32;;;4.19;50.93
63339;BME280;47485;51.378;-1.342;2022-11-23T10:06:17;97492.54;;;3.50;50.90
63339;BME280;47485;51.378;-1.342;2022-11-23T10:08:56;97508.56;;;3.91;51.55
63339;BME280;47485;51.378;-1.342;2022-11-23T10:11:38;97511.64;;;4.78;49.22
63339;BME280;47485;51.378;-1.342;2022-11-23T10:14:21;97522.22;;;2.54;50.70
63339;BME280;47485;51.378;-1.342;2022-11-23T10:16:59;97528.73;;;2.38;51.17
63339;BME280;47485;51.378;-1.342;2022-11-23T10:19:39;97532.07;;;2.64;51.33
63339;BME280;47485;51.378;-1.342;2022-11-23T10:22:16;97547.62;;;3.23;52.31
63339;BME280;47485;51.378;-1.342;2022-11-23T10:24:50;97549.82;;;2.87;52.25
63339;BME280;47485;51.378;-1.342;2022-11-23T10:27:20;97553.01;;;3.45;50.53
63339;BME280;47485;51.378;-1.342;2022-11-23T10:29:49;97555.12;;;2.05;52.91
63339;BME280;47485;51.378;-1.342;2022-11-23T10:32:24;97565.77;;;3.03;50.60
63339;BME280;47485;51.378;-1.342;2022-11-23T10:34:59;97572.27;;;3.20;50.19
63339;BME280;47485;51.378;-1.342;2022-11-23T10:37:28;97575.64;;;2.81;48.39
63339;BME280;47485;51.378;-1.342;2022-11-23T10:39:55;97587.29;;;3.91;50.84
63339;BME280;47485;51.378;-1.342;2022-11-23T10:42:27;97584.86;;;2.90;51.14
63339;BME280;47485;51.378;-1.342;2022-11-23T10:44:56;97586.88;;;3.12;49.87
63339;BME280;47485;51.378;-1.342;2022-11-23T10:47:41;97592.17;;;1.74;51.95
63339;BME280;47485;51.378;-1.342;2022-11-23T10:50:26;97593.76;;;3.56;50.40
63339;BME280;47485;51.378;-1.342;2022-11-23T10:52:55;97600.38;;;2.78;51.04
63339;BME280;47485;51.378;-1.342;2022-11-23T10:55:26;97604.65;;;3.31;50.05
63339;BME280;47485;51.378;-1.342;2022-11-23T10:57:53;97610.93;;;2.36;49.25
63339;BME280;47485;51.378;-1.342;2022-11-23T11:00:22;97612.75;;;3.82;47.49
63339;BME280;47485;51.378;-1.342;2022-11-23T11:02:52;97616.50;;;3.77;49.18
63339;BME280;47485;51.378;-1.342;2022-11-23T11:05:26;97623.38;;;2.98;50.11
63339;BME280;47485;51.378;-1.342;2022-11-23T11:07:55;97611.41;;;2.93;50.07
63339;BME280;47485;51.378;-1.342;2022-11-23T11:10:40;97613.24;;;2.94;49.84
63339;BME280;47485;51.378;-1.342;2022-11-23T11:13:26;97614.41;;;4.94;47.43
63339;BME280;47485;51.378;-1.342;2022-11-23T11:15:55;97606.96;;;3.32;47.41
63339;BME280;47485;51.378;-1.342;2022-11-23T11:18:25;97620.08;;;4.19;47.58
63339;BME280;47485;51.378;-1.342;2022-11-23T11:20:56;97620.94;;;3.61;46.79
63339;BME280;47485;51.378;-1.342;2022-11-23T11:23:23;97623.64;;;5.33;45.74
63339;BME280;47485;51.378;-1.342;2022-11-23T11:26:02;97629.04;;;4.34;45.69
63339;BME280;47485;51.378;-1.342;2022-11-23T11:28:34;97623.72;;;3.70;47.13
63339;BME280;47485;51.378;-1.342;2022-11-23T11:31:14;97623.52;;;3.54;46.33
63339;BME280;47485;51.378;-1.342;2022-11-23T11:33:52;97629.52;;;4.40;46.04
63339;BME280;47485;51.378;-1.342;2022-11-23T11:36:22;97640.88;;;2.29;47.67
63339;BME280;47485;51.378;-1.342;2022-11-23T11:38:51;97637.53;;;2.00;49.73
63339;BME280;47485;51.378;-1.342;2022-11-23T11:41:21;97636.15;;;4.02;46.09
63339;BME280;47485;51.378;-1.342;2022-11-23T11:43:52;97640.09;;;5.33;43.94
63339;BME280;47485;51.378;-1.342;2022-11-23T11:46:26;97640.12;;;5.04;43.67
63339;BME280;47485;51.378;-1.342;2022-11-23T11:49:01;97639.96;;;4.60;44.13
63339;BME280;47485;51.378;-1.342;2022-11-23T11:51:32;97630.68;;;4.61;42.93
63339;BME280;47485;51.378;-1.342;2022-11-23T11:54:04;97639.87;;;5.07;42.52
63339;BME280;47485;51.378;-1.342;2022-11-23T11:56:37;97652.28;;;5.87;42.62
63339;BME280;47485;51.378;-1.342;2022-11-23T11:59:12;97652.60;;;3.07;44.18
63339;BME280;47485;51.378;-1.342;2022-11-23T12:01:43;97650.97;;;4.22;43.06
63339;BME280;47485;51.378;-1.342;2022-11-23T12:04:17;97662.09;;;3.36;43.38
63339;BME280;47485;51.378;-1.342;2022-11-23T12:06:52;97657.99;;;3.25;44.91
63339;BME280;47485;51.378;-1.342;2022-11-23T12:09:24;97667.94;;;5.10;41.28
63339;BME280;47485;51.378;-1.342;2022-11-23T12:11:53;97674.35;;;4.83;43.13
63339;BME280;47485;51.378;-1.342;2022-11-23T12:14:20;97664.83;;;3.18;43.94
63339;BME280;47485;51.378;-1.342;2022-11-23T12:16:54;97660.82;;;3.83;44.16
63339;BME280;47485;51.378;-1.342;2022-11-23T12:19:26;97670.56;;;3.36;43.71
63339;BME280;47485;51.378;-1.342;2022-11-23T12:22:23;97673.58;;;3.69;44.64
63339;BME280;47485;51.378;-1.342;2022-11-23T12:25:04;97677.40;;;3.68;42.72
63339;BME280;47485;51.378;-1.342;2022-11-23T12:27:41;97682.77;;;3.80;41.92
63339;BME280;47485;51.378;-1.342;2022-11-23T12:30:19;97691.29;;;2.42;43.85
63339;BME280;47485;51.378;-1.342;2022-11-23T12:33:01;97692.21;;;2.78;44.52
63339;BME280;47485;51.378;-1.342;2022-11-23T12:35:48;97689.81;;;4.83;42.36
63339;BME280;47485;51.378;-1.342;2022-11-23T12:38:28;97696.71;;;3.97;42.35
63339;BME280;47485;51.378;-1.342;2022-11-23T12:41:07;97695.04;;;3.98;42.79
63339;BME280;47485;51.378;-1.342;2022-11-23T12:43:52;97694.79;;;3.22;43.84
63339;BME280;47485;51.378;-1.342;2022-11-23T12:46:26;97709.28;;;3.54;42.15
63339;BME280;47485;51.378;-1.342;2022-11-23T12:49:06;97707.32;;;4.18;42.75
63339;BME280;47485;51.378;-1.342;2022-11-23T12:51:46;97704.56;;;4.13;40.15
63339;BME280;47485;51.378;-1.342;2022-11-23T12:54:30;97717.96;;;4.50;41.13
63339;BME280;47485;51.378;-1.342;2022-11-23T12:57:09;97710.26;;;3.36;39.27
63339;BME280;47485;51.378;-1.342;2022-11-23T12:59:43;97709.70;;;4.88;38.26
63339;BME280;47485;51.378;-1.342;2022-11-23T13:08:00;97730.63;;;5.41;39.43
63339;BME280;47485;51.378;-1.342;2022-11-23T13:10:46;97731.39;;;5.21;39.67
63339;BME280;47485;51.378;-1.342;2022-11-23T13:13:31;97742.29;;;5.82;39.67
63339;BME280;47485;51.378;-1.342;2022-11-23T13:16:20;97735.36;;;4.04;42.39